Time;durP1;ratioP1;P1;durP2;ratioP2;P2;SDS_P1;SDS_P2;PMS_P1;PMS_P2;Temp;Humidity;BMP_temperature;BMP_pressure;BME280_temperature;BME280_humidity;BME280_pressure;Samples;Min_cycle;Max_cycle;Signal;HPM_P1;HPM_P2
2022/07/12 00:02:22;;;;;;;9.10;5.60;;;;;;;11.94;86.54;98697.97;105979;1285;25437;-80
2022/07/12 00:04:49;;;;;;;7.80;6.80;;;;;;;11.98;86.57;98700.25;105182;1285;137953;-80
2022/07/12 00:07:17;;;;;;;8.40;6.70;;;;;;;11.99;86.55;98700.94;105561;1284;22650;-80
2022/07/12 00:09:45;;;;;;;9.90;6.30;;;;;;;12.01;86.68;98701.39;105750;1285;138114;-79
2022/07/12 00:12:15;;;;;;;8.90;6.60;;;;;;;12.03;86.65;98694.88;105554;1284;22559;-79
2022/07/12 00:14:41;;;;;;;6.60;5.90;;;;;;;12.05;87.15;98693.77;106076;1284;22582;-80
2022/07/12 00:17:08;;;;;;;7.00;6.10;;;;;;;12.10;87.01;98696.86;105041;1285;138000;-80
2022/07/12 00:19:35;;;;;;;9.10;7.20;;;;;;;12.15;86.98;98699.71;105449;1287;25599;-79
2022/07/12 00:22:02;;;;;;;7.90;7.10;;;;;;;12.18;86.79;98701.98;105555;1284;138001;-79
2022/07/12 00:24:28;;;;;;;9.40;6.20;;;;;;;12.20;86.73;98701.80;105728;1283;22711;-79
2022/07/12 00:26:57;;;;;;;8.10;6.40;;;;;;;12.18;86.53;98699.98;105316;1285;22639;-81
2022/07/12 00:29:24;;;;;;;7.80;6.40;;;;;;;12.19;86.66;98699.94;105283;1284;138211;-79
2022/07/12 00:31:52;;;;;;;8.90;7.90;;;;;;;12.21;86.70;98698.62;105715;1284;22576;-79
2022/07/12 00:34:22;;;;;;;9.70;7.40;;;;;;;12.24;86.63;98700.73;105590;1284;138041;-79
2022/07/12 00:36:49;;;;;;;8.10;6.70;;;;;;;12.23;86.64;98696.67;105370;1284;22565;-79
2022/07/12 00:39:16;;;;;;;8.70;6.80;;;;;;;12.25;86.92;98697.89;105332;1287;25282;-79
2022/07/12 00:41:48;;;;;;;8.90;6.90;;;;;;;12.28;87.10;98700.23;105524;1284;137926;-80
2022/07/12 00:44:17;;;;;;;10.00;7.30;;;;;;;12.29;86.69;98700.31;105560;1286;22572;-80
2022/07/12 00:46:49;;;;;;;10.00;7.10;;;;;;;12.29;86.71;98700.10;105272;1286;137806;-80
2022/07/12 00:49:20;;;;;;;8.60;6.90;;;;;;;12.29;86.76;98702.55;105802;1285;22589;-80
2022/07/12 00:51:47;;;;;;;9.00;6.60;;;;;;;12.31;87.09;98703.52;106159;1285;138536;-80
2022/07/12 00:54:16;;;;;;;10.60;7.40;;;;;;;12.36;87.07;98704.45;105557;1286;22816;-80
2022/07/12 00:56:43;;;;;;;12.30;8.20;;;;;;;12.38;86.85;98703.94;105412;1284;22722;-80
2022/07/12 00:59:11;;;;;;;10.60;7.10;;;;;;;12.41;87.10;98706.54;105451;1285;138988;-79
2022/07/12 01:01:38;;;;;;;9.60;7.20;;;;;;;12.43;87.02;98707.56;105588;1286;25637;-79
2022/07/12 01:04:05;;;;;;;10.20;7.50;;;;;;;12.48;86.69;98709.05;105800;1284;138446;-80
2022/07/12 01:06:33;;;;;;;11.10;8.10;;;;;;;12.49;86.47;98706.02;105282;1285;22585;-79
2022/07/12 01:09:00;;;;;;;12.20;8.70;;;;;;;12.47;86.41;98712.88;105681;1286;25157;-79
2022/07/12 01:11:27;;;;;;;8.80;7.70;;;;;;;12.46;86.81;98706.95;105581;1284;138580;-79
2022/07/12 01:13:54;;;;;;;9.40;7.90;;;;;;;12.48;86.94;98704.09;105159;1285;22580;-79
2022/07/12 01:16:23;;;;;;;10.00;7.50;;;;;;;12.48;86.82;98703.66;105235;1286;138532;-79
2022/07/12 01:18:52;;;;;;;9.60;8.00;;;;;;;12.49;86.79;98711.42;105384;1285;24380;-79
2022/07/12 01:21:22;;;;;;;13.30;8.70;;;;;;;12.48;86.93;98709.66;105785;1284;25276;-79
2022/07/12 01:23:50;;;;;;;9.30;7.80;;;;;;;12.47;87.06;98701.62;105831;1284;137768;-79
2022/07/12 01:26:23;;;;;;;9.00;7.40;;;;;;;12.48;87.12;98703.16;105973;1283;22589;-79
2022/07/12 01:28:54;;;;;;;7.50;6.70;;;;;;;12.50;87.08;98700.13;105890;1284;138675;-78
2022/07/12 01:31:20;;;;;;;10.50;6.90;;;;;;;12.50;86.94;98699.52;105443;1284;22566;-78
2022/07/12 01:33:48;;;;;;;9.50;7.40;;;;;;;12.50;87.30;98692.14;105169;1285;137979;-78
2022/07/12 01:36:15;;;;;;;8.00;6.50;;;;;;;12.50;87.40;98689.91;105585;1284;25382;-78
2022/07/12 01:38:42;;;;;;;8.30;6.60;;;;;;;12.51;87.47;98688.95;105127;1286;25409;-78
2022/07/12 01:41:11;;;;;;;9.40;6.40;;;;;;;12.52;87.14;98687.80;105297;1284;138339;-78
2022/07/12 01:43:41;;;;;;;8.10;6.20;;;;;;;12.51;87.17;98687.79;105664;1284;24278;-78
2022/07/12 01:46:10;;;;;;;7.80;6.60;;;;;;;12.51;87.30;98686.64;105546;1284;138046;-78
2022/07/12 01:48:38;;;;;;;7.50;5.90;;;;;;;12.50;87.54;98684.98;105192;1286;25330;-78
2022/07/12 01:51:07;;;;;;;10.50;5.40;;;;;;;12.49;87.21;98688.59;105681;1287;23414;-79
2022/07/12 01:53:36;;;;;;;7.70;5.00;;;;;;;12.49;87.44;98688.75;105476;1284;138557;-79
2022/07/12 01:56:04;;;;;;;;;;;;;;;12.49;87.40;98690.00;105757;1286;22543;-79
2022/07/12 01:58:31;;;;;;;6.60;4.80;;;;;;;12.48;87.47;98695.41;105086;1285;124446;-79
2022/07/12 02:00:58;;;;;;;11.50;5.50;;;;;;;12.47;87.57;98689.38;105115;1285;24245;-79
2022/07/12 02:03:27;;;;;;;6.60;4.80;;;;;;;12.45;87.69;98693.77;105436;1285;138801;-78
2022/07/12 02:05:55;;;;;;;6.50;5.80;;;;;;;12.44;87.54;98689.39;105356;1285;22583;-78
2022/07/12 02:08:22;;;;;;;7.20;5.30;;;;;;;12.43;87.78;98689.92;105264;1285;23279;-80
2022/07/12 02:10:49;;;;;;;8.40;6.20;;;;;;;12.43;87.76;98684.67;105473;1285;138002;-78
2022/07/12 02:13:17;;;;;;;10.50;6.00;;;;;;;12.42;87.98;98683.40;105595;1285;22571;-78
2022/07/12 02:15:44;;;;;;;7.00;5.50;;;;;;;12.44;88.15;98689.82;105163;1285;138619;-78
2022/07/12 02:18:11;;;;;;;7.70;6.20;;;;;;;12.44;87.90;98689.94;105492;1285;22688;-78
2022/07/12 02:20:41;;;;;;;6.80;6.10;;;;;;;12.46;87.78;98690.89;105192;1285;24234;-80
2022/07/12 02:23:07;;;;;;;11.00;7.00;;;;;;;12.48;88.25;98690.80;105455;1287;137543;-78
2022/07/12 02:25:34;;;;;;;14.90;6.70;;;;;;;12.49;87.89;98684.48;105305;1284;22557;-78
2022/07/12 02:28:03;;;;;;;10.30;6.10;;;;;;;12.48;87.96;98688.79;105576;1284;138714;-78
2022/07/12 02:30:32;;;;;;;8.80;6.50;;;;;;;12.50;88.10;98687.77;104947;1287;24542;-78
2022/07/12 02:33:02;;;;;;;7.60;5.90;;;;;;;12.52;87.66;98692.73;105530;1284;22703;-78
2022/07/12 02:35:30;;;;;;;10.60;6.70;;;;;;;12.56;88.03;98695.55;105188;1284;138017;-78
2022/07/12 02:37:57;;;;;;;10.50;7.10;;;;;;;12.58;88.06;98687.24;105318;1284;25338;-78
2022/07/12 02:43:06;;;;;;;8.00;6.20;;;;;;;12.65;87.97;98692.30;105381;1285;24451;-78
2022/07/12 02:45:33;;;;;;;9.20;8.10;;;;;;;12.68;87.72;98694.09;105143;1285;138438;-78
2022/07/12 02:48:02;;;;;;;;;;;;;;;12.69;87.61;98696.40;105158;1285;24429;-78
2022/07/12 02:50:29;;;;;;;9.70;8.30;;;;;;;12.70;87.68;98695.15;105312;1284;23982;-78
2022/07/12 03:29:23;;;;;;;10.20;8.90;;;;;;;12.59;87.21;98709.31;104941;1306;566343;-79
2022/07/12 03:31:51;;;;;;;11.10;8.40;;;;;;;12.70;86.89;98716.13;105514;1290;280520;-78
2022/07/12 03:34:17;;;;;;;8.50;7.70;;;;;;;12.70;86.93;98718.11;105766;1290;138378;-78
2022/07/12 03:36:58;;;;;;;10.90;7.80;;;;;;;12.70;87.55;98713.73;106020;1290;22698;-78
2022/07/12 03:39:25;;;;;;;11.20;9.40;;;;;;;12.70;87.13;98720.90;105071;1290;23922;-78
2022/07/12 03:41:51;;;;;;;12.00;8.70;;;;;;;12.67;87.34;98716.63;107896;1287;136943;-78
2022/07/12 03:44:18;;;;;;;9.20;7.60;;;;;;;12.67;87.54;98715.83;107066;1287;22628;-78
2022/07/12 03:46:44;;;;;;;8.70;7.80;;;;;;;12.72;87.56;98714.35;105482;1287;138064;-78
2022/07/12 03:49:18;;;;;;;14.80;9.30;;;;;;;12.74;87.62;98711.10;105852;1287;22677;-78
2022/07/12 03:51:44;;;;;;;9.80;8.50;;;;;;;12.77;87.42;98713.60;105910;1290;25267;-78
2022/07/12 03:54:12;;;;;;;13.90;8.90;;;;;;;12.80;87.83;98705.77;107462;1289;137100;-78
2022/07/12 03:59:22;;;;;;;11.50;8.80;;;;;;;12.95;87.95;98703.73;105103;1290;137717;-77
2022/07/12 04:01:51;;;;;;;12.00;8.50;;;;;;;13.01;87.61;98700.52;105754;1290;22565;-77
2022/07/12 04:04:23;;;;;;;11.20;9.20;;;;;;;13.03;87.08;98699.65;106761;1277;137130;-77
2022/07/12 04:06:49;;;;;;;11.40;9.40;;;;;;;13.04;87.05;98700.27;106423;1277;25337;-77
2022/07/12 04:09:20;;;;;;;9.80;8.00;;;;;;;13.05;87.00;98701.94;108667;1277;22994;-77
2022/07/12 04:11:46;;;;;;;9.80;8.00;;;;;;;13.07;86.85;98702.77;107603;1277;137707;-77
2022/07/12 04:14:13;;;;;;;8.60;7.40;;;;;;;13.11;86.82;98703.75;106719;1277;24603;-77
2022/07/12 04:16:39;;;;;;;10.80;8.60;;;;;;;13.13;86.68;98700.22;106397;1277;136844;-77
2022/07/12 04:19:05;;;;;;;9.60;7.90;;;;;;;13.14;86.79;98700.45;108183;1278;23102;-77
2022/07/12 04:21:38;;;;;;;8.70;7.80;;;;;;;13.18;86.92;98699.08;106947;1279;24143;-77
2022/07/12 04:24:09;;;;;;;11.20;7.50;;;;;;;13.25;87.04;98701.11;106659;1278;138031;-78
2022/07/12 04:26:35;;;;;;;9.90;8.40;;;;;;;13.28;86.81;98698.75;106379;1277;22619;-77
2022/07/12 04:29:05;;;;;;;7.90;7.10;;;;;;;13.33;86.83;98697.84;108228;1277;137542;-78
2022/07/12 04:31:32;;;;;;;8.30;7.50;;;;;;;13.37;86.70;98698.04;106503;1277;23929;-77
2022/07/12 04:34:16;;;;;;;9.00;6.70;;;;;;;13.38;86.53;98687.94;106599;1277;138189;-77
2022/07/12 04:36:44;;;;;;;8.50;5.90;;;;;;;13.41;86.21;98686.83;108160;1277;22607;-77
2022/07/12 04:39:27;;;;;;;7.20;5.90;;;;;;;13.41;86.24;98684.91;106958;1277;22557;-77
2022/07/12 04:42:08;;;;;;;8.90;7.20;;;;;;;13.46;86.47;98688.79;106845;1277;137493;-78
2022/07/12 04:44:34;;;;;;;7.10;5.80;;;;;;;13.54;86.71;98689.52;106822;1278;22527;-77
2022/07/12 04:47:01;;;;;;;6.30;5.30;;;;;;;13.60;86.39;98691.33;108325;1277;137754;-77
2022/07/12 04:49:27;;;;;;;6.60;5.60;;;;;;;13.63;86.17;98691.96;106218;1278;23571;-77
2022/07/12 04:51:53;;;;;;;6.20;5.60;;;;;;;13.67;86.06;98694.47;106168;1278;162325;-77
2022/07/12 04:54:19;;;;;;;6.90;6.20;;;;;;;13.66;85.97;98694.85;107860;1279;22695;-77
2022/07/12 04:56:45;;;;;;;7.20;5.60;;;;;;;13.66;86.24;98695.06;108406;1278;22709;-77
2022/07/12 04:59:12;;;;;;;8.30;5.00;;;;;;;13.67;85.92;98690.09;106322;1278;138018;-77
2022/07/12 05:01:40;;;;;;;5.10;4.40;;;;;;;13.67;85.75;98687.23;106490;1279;24350;-78
2022/07/12 05:04:06;;;;;;;5.30;4.40;;;;;;;13.67;85.75;98685.88;106780;1277;137796;-77
2022/07/12 05:06:33;;;;;;;9.20;4.40;;;;;;;13.66;85.71;98687.23;108592;1279;22523;-78
2022/07/12 05:08:59;;;;;;;4.30;3.90;;;;;;;13.67;85.74;98687.79;107794;1280;25437;-77
2022/07/12 05:11:25;;;;;;;4.70;3.30;;;;;;;13.68;85.72;98683.41;106414;1279;138376;-78
2022/07/12 05:13:52;;;;;;;3.30;2.90;;;;;;;13.71;85.86;98683.01;106112;1281;24280;-78
2022/07/12 05:16:18;;;;;;;6.10;3.20;;;;;;;13.73;85.95;98683.14;106519;1279;138146;-78
2022/07/12 05:18:44;;;;;;;4.80;3.20;;;;;;;13.77;85.62;98683.40;109114;1279;23484;-78
2022/07/12 05:21:25;;;;;;;4.20;3.10;;;;;;;13.81;85.65;98680.95;107103;1280;22566;-78
2022/07/12 05:23:51;;;;;;;6.40;2.90;;;;;;;13.83;85.73;98679.72;106391;1279;137411;-78
2022/07/12 05:26:17;;;;;;;6.40;2.80;;;;;;;13.87;85.59;98682.81;106590;1281;23294;-78
2022/07/12 05:28:44;;;;;;;4.10;2.40;;;;;;;13.92;85.32;98681.11;108819;1278;140667;-78
2022/07/12 05:31:11;;;;;;;4.40;2.50;;;;;;;13.96;85.12;98683.44;106853;1279;22570;-78
2022/07/12 05:33:37;;;;;;;6.30;2.60;;;;;;;14.01;85.11;98680.19;106708;1279;22580;-78
2022/07/12 05:36:03;;;;;;;4.70;2.80;;;;;;;14.07;85.33;98678.25;106232;1281;137145;-78
2022/07/12 05:38:30;;;;;;;6.40;2.60;;;;;;;14.12;85.22;98679.29;108257;1281;23354;-78
2022/07/12 05:40:56;;;;;;;5.10;2.10;;;;;;;14.15;84.95;98682.92;106727;1277;137583;-78
2022/07/12 05:43:22;;;;;;;2.40;2.20;;;;;;;14.19;84.68;98683.34;106799;1277;22706;-77
2022/07/12 05:45:48;;;;;;;4.70;2.20;;;;;;;14.23;84.53;98685.55;106414;1280;22782;-78
2022/07/12 05:48:15;;;;;;;5.00;2.00;;;;;;;14.27;84.39;98690.02;106522;1279;136734;-81
2022/07/12 05:50:41;;;;;;;3.90;2.40;;;;;;;14.28;83.90;98687.39;106512;1277;22734;-80
2022/07/12 05:55:49;;;;;;;4.50;2.60;;;;;;;14.44;84.17;98684.59;106251;1279;23957;-78
2022/07/12 05:58:15;;;;;;;4.20;2.60;;;;;;;14.57;84.38;98687.48;106575;1278;137048;-78
2022/07/12 06:00:42;;;;;;;4.70;2.30;;;;;;;14.70;84.10;98686.97;108017;1277;25379;-78
2022/07/12 06:03:09;;;;;;;3.90;2.20;;;;;;;14.84;83.99;98683.63;106716;1278;22550;-80
2022/07/12 06:05:35;;;;;;;5.90;1.90;;;;;;;14.97;83.46;98680.94;106972;1278;138639;-80
2022/07/12 06:08:01;;;;;;;4.40;2.10;;;;;;;15.11;82.95;98679.30;106798;1280;22702;-80
2022/07/12 06:10:28;;;;;;;4.50;2.30;;;;;;;15.26;82.47;98682.25;106692;1279;137621;-78
2022/07/12 06:12:54;;;;;;;2.20;2.00;;;;;;;15.40;82.22;98680.48;106374;1281;22785;-80
2022/07/12 06:15:20;;;;;;;1.90;1.70;;;;;;;15.47;80.48;98679.71;106962;1279;24305;-78
2022/07/12 06:18:02;;;;;;;5.70;3.10;;;;;;;15.54;81.05;98676.55;105986;1280;137797;-75
2022/07/12 06:20:28;;;;;;;7.80;4.00;;;;;;;15.64;81.37;98677.44;107202;1279;27408;-80
2022/07/12 06:22:56;;;;;;;6.80;4.40;;;;;;;15.72;80.84;98676.77;106879;1279;137152;-78
2022/07/12 06:25:23;;;;;;;7.80;4.70;;;;;;;15.76;80.58;98679.18;106319;1279;24302;-79
2022/07/12 06:27:50;;;;;;;8.50;4.30;;;;;;;15.80;80.19;98680.39;106142;1280;26696;-79
2022/07/12 06:30:18;;;;;;;8.30;4.30;;;;;;;15.83;80.33;98678.47;106830;1279;25643;-79
2022/07/12 06:32:48;;;;;;;7.50;3.60;;;;;;;15.86;80.07;98678.86;106953;1278;23284;-79
2022/07/12 06:35:15;;;;;;;8.60;4.00;;;;;;;15.89;79.90;98681.77;105809;1279;137150;-80
2022/07/12 06:37:43;;;;;;;11.10;6.10;;;;;;;15.88;79.34;98680.78;106185;1279;22579;-79
2022/07/12 06:40:16;;;;;;;8.10;4.90;;;;;;;15.83;79.24;98681.92;106304;1278;137276;-79
2022/07/12 06:42:44;;;;;;;7.90;4.80;;;;;;;15.82;79.23;98681.83;106453;1278;22718;-81
2022/07/12 06:45:25;;;;;;;9.30;4.80;;;;;;;15.82;78.86;98678.73;106001;1277;22544;-81
2022/07/12 06:47:52;;;;;;;9.00;5.60;;;;;;;15.86;78.82;98683.24;106686;1278;137023;-80
2022/07/12 06:50:19;;;;;;;10.00;6.20;;;;;;;15.89;78.56;98676.05;106271;1278;24217;-79
2022/07/12 06:52:45;;;;;;;8.20;5.90;;;;;;;15.93;78.23;98678.85;106266;1277;137813;-81
2022/07/12 06:55:11;;;;;;;8.00;5.20;;;;;;;15.95;77.97;98682.27;106278;1278;22543;-82
2022/07/12 06:57:37;;;;;;;8.70;5.40;;;;;;;15.99;78.10;98681.71;106202;1278;22568;-81
2022/07/12 07:00:07;;;;;;;8.70;6.30;;;;;;;16.02;78.09;98685.66;106624;1277;137371;-81
2022/07/12 07:02:34;;;;;;;8.20;6.50;;;;;;;16.04;78.07;98685.89;106859;1277;22554;-80
2022/07/12 07:05:00;;;;;;;12.30;7.60;;;;;;;16.05;77.91;98691.00;106727;1277;136998;-80
2022/07/12 07:07:26;;;;;;;9.50;6.70;;;;;;;16.11;77.75;98688.08;106396;1277;24363;-84
2022/07/12 07:09:53;;;;;;;10.40;7.30;;;;;;;16.19;77.57;98691.09;106466;1277;139568;-80
2022/07/12 07:12:19;;;;;;;8.40;6.40;;;;;;;16.27;77.59;98690.38;106668;1278;24304;-81
2022/07/12 07:14:46;;;;;;;7.30;6.40;;;;;;;16.33;77.05;98686.84;106513;1277;22764;-81
2022/07/12 07:17:16;;;;;;;10.90;6.50;;;;;;;16.37;76.78;98683.23;106486;1277;137135;-81
2022/07/12 07:19:42;;;;;;;10.40;5.80;;;;;;;16.39;76.49;98694.80;106554;1277;25332;-79
2022/07/12 07:22:08;;;;;;;8.90;6.10;;;;;;;16.42;76.10;98689.98;106207;1278;138260;-79
2022/07/12 07:24:35;;;;;;;7.60;5.90;;;;;;;16.48;76.09;98691.12;106336;1278;22545;-80
2022/07/12 07:27:16;;;;;;;7.10;5.40;;;;;;;16.52;75.71;98692.46;106415;1279;24320;-82
2022/07/12 07:32:22;;;;;;;6.70;5.40;;;;;;;16.58;74.93;98693.95;106522;1278;25522;-81
2022/07/12 07:34:49;;;;;;;5.60;4.90;;;;;;;16.61;74.95;98699.55;106404;1277;137586;-81
2022/07/12 07:37:15;;;;;;;6.30;4.60;;;;;;;16.66;74.89;98696.68;106217;1278;23226;-80
2022/07/12 07:39:42;;;;;;;8.10;5.20;;;;;;;16.72;74.27;98698.09;106691;1277;24253;-80
2022/07/12 07:42:09;;;;;;;5.60;4.90;;;;;;;16.76;74.08;98696.98;106254;1277;137111;-80
2022/07/12 07:44:35;;;;;;;6.60;4.20;;;;;;;16.80;73.76;98698.02;106566;1278;29546;-80
2022/07/12 07:47:01;;;;;;;5.30;4.20;;;;;;;16.83;74.01;98694.30;106671;1279;137193;-82
2022/07/12 07:49:28;;;;;;;4.90;4.20;;;;;;;16.86;73.70;98695.05;106507;1279;22628;-81
2022/07/12 07:51:54;;;;;;;6.20;3.60;;;;;;;16.95;73.92;98693.92;106196;1279;138549;-80
2022/07/12 07:54:21;;;;;;;4.30;3.30;;;;;;;17.11;74.03;98692.09;106181;1277;22567;-80
2022/07/12 07:56:47;;;;;;;6.30;3.20;;;;;;;17.23;73.97;98686.30;106550;1277;23487;-81
2022/07/12 07:59:28;;;;;;;5.40;3.10;;;;;;;17.42;72.82;98689.52;106142;1277;138126;-81
2022/07/12 08:01:55;;;;;;;2.80;2.60;;;;;;;17.60;72.26;98686.04;106384;1280;22574;-82
2022/07/12 08:04:21;;;;;;;2.60;2.00;;;;;;;17.71;71.40;98686.29;106391;1278;137509;-81
2022/07/12 08:06:49;;;;;;;4.20;2.20;;;;;;;17.74;71.33;98684.58;106328;1277;24266;-80
2022/07/12 08:09:15;;;;;;;5.50;2.60;;;;;;;17.78;71.49;98688.23;106897;1277;23340;-80
2022/07/12 08:11:42;;;;;;;5.70;2.50;;;;;;;17.80;71.20;98692.23;106628;1279;138122;-80
2022/07/12 08:14:09;;;;;;;5.70;1.90;;;;;;;17.82;71.04;98692.67;106523;1278;22618;-80
2022/07/12 08:16:36;;;;;;;6.30;2.20;;;;;;;17.79;70.57;98695.05;106329;1277;137353;-79
2022/07/12 08:19:03;;;;;;;3.00;2.10;;;;;;;17.78;69.99;98697.60;106506;1277;24299;-80
2022/07/12 08:21:30;;;;;;;4.40;2.00;;;;;;;17.81;70.18;98695.54;106500;1278;23197;-80
2022/07/12 08:23:57;;;;;;;6.10;1.90;;;;;;;17.94;70.48;98692.94;106095;1279;137304;-80
2022/07/12 08:26:23;;;;;;;3.00;1.90;;;;;;;18.10;69.44;98690.04;106060;1278;22566;-80
2022/07/12 08:28:51;;;;;;;3.70;2.00;;;;;;;18.26;69.23;98690.29;105905;1279;137744;-81
2022/07/12 08:31:17;;;;;;;3.90;1.60;;;;;;;18.35;68.62;98689.88;106246;1278;22603;-81
2022/07/12 08:33:44;;;;;;;2.70;2.00;;;;;;;18.36;67.52;98692.13;106442;1278;22774;-81
2022/07/12 08:36:25;;;;;;;3.10;1.20;;;;;;;18.30;66.31;98682.31;106535;1278;22595;-82
2022/07/12 08:38:51;;;;;;;4.70;1.50;;;;;;;18.24;66.39;98688.15;106345;1277;24900;-80
2022/07/12 08:41:17;;;;;;;2.70;1.60;;;;;;;18.31;67.02;98678.16;106681;1277;138127;-80
2022/07/12 08:43:44;;;;;;;2.20;1.60;;;;;;;18.55;67.24;98679.75;106296;1277;24387;-81
2022/07/12 08:46:12;;;;;;;6.20;2.00;;;;;;;18.82;66.67;98676.10;106008;1277;137163;-80
2022/07/12 08:48:41;;;;;;;2.20;1.50;;;;;;;19.06;65.25;98670.52;106465;1277;22876;-83
2022/07/12 08:51:08;;;;;;;4.30;2.20;;;;;;;18.94;64.28;98671.54;106308;1278;25420;-81
2022/07/12 08:53:35;;;;;;;2.00;1.60;;;;;;;18.76;64.19;98673.13;106203;1277;137037;-81
2022/07/12 08:56:03;;;;;;;3.40;2.30;;;;;;;18.57;63.83;98670.70;106155;1278;24266;-80
2022/07/12 08:58:30;;;;;;;4.40;2.20;;;;;;;18.41;64.82;98674.27;106508;1280;137702;-82
2022/07/12 09:00:56;;;;;;;3.50;1.60;;;;;;;18.54;66.13;98672.09;106373;1277;22905;-81
2022/07/12 09:03:23;;;;;;;3.80;1.60;;;;;;;18.85;65.05;98680.83;106299;1277;138061;-83
2022/07/12 09:05:55;;;;;;;5.60;1.70;;;;;;;18.89;63.41;98672.59;106675;1278;23448;-82
2022/07/12 09:08:27;;;;;;;4.40;1.50;;;;;;;18.79;61.43;98679.98;105983;1279;22573;-81
2022/07/12 09:10:57;;;;;;;2.90;1.60;;;;;;;18.93;62.76;98675.31;106218;1278;137307;-81
2022/07/12 09:13:50;;;;;;;5.20;1.90;;;;;;;19.14;62.48;98675.59;106362;1278;25284;-81
2022/07/12 09:16:25;;;;;;;2.20;1.50;;;;;;;19.27;62.10;98671.63;106147;1278;137394;-82
2022/07/12 09:19:11;;;;;;;3.80;1.20;;;;;;;19.35;61.20;98676.88;106504;1278;22620;-82
2022/07/12 09:21:45;;;;;;;2.80;1.30;;;;;;;19.14;60.78;98690.24;106241;1278;137422;-82
2022/07/12 09:24:12;;;;;;;2.60;1.10;;;;;;;18.68;61.94;98710.71;106313;1277;23967;-83
2022/07/12 09:26:38;;;;;;;4.50;0.90;;;;;;;18.12;63.24;98717.20;106304;1277;22674;-82
2022/07/12 09:29:07;;;;;;;2.90;0.70;;;;;;;17.58;65.19;98723.77;106212;1278;137228;-79
2022/07/12 09:37:23;;;;;;;2.40;0.80;;;;;;;16.19;72.16;98725.94;107136;1277;31817;-79
2022/07/12 09:39:52;;;;;;;1.40;0.80;;;;;;;16.01;73.66;98722.27;106481;1277;137343;-79
2022/07/12 09:42:19;;;;;;;1.20;0.70;;;;;;;15.97;75.01;98721.00;107647;1277;22575;-80
2022/07/12 09:44:45;;;;;;;1.60;0.50;;;;;;;16.01;75.06;98718.90;106541;1277;22553;-79
2022/07/12 09:47:15;;;;;;;2.60;1.00;;;;;;;16.10;75.13;98717.70;106673;1278;137805;-79
2022/07/12 09:49:43;;;;;;;3.10;0.90;;;;;;;16.30;75.28;98714.39;106481;1279;22576;-81
2022/07/12 09:52:28;;;;;;;2.70;1.00;;;;;;;16.52;74.92;98707.39;106487;1278;137577;-79
2022/07/12 09:54:56;;;;;;;3.30;1.30;;;;;;;16.73;75.39;98707.00;106126;1277;24287;-80
2022/07/12 09:57:40;;;;;;;2.30;1.00;;;;;;;17.06;75.50;98704.61;106156;1277;138843;-79
2022/07/12 10:00:10;;;;;;;1.10;0.90;;;;;;;17.36;74.83;98699.41;106558;1277;22624;-81
2022/07/12 10:02:40;;;;;;;2.00;1.30;;;;;;;17.59;73.35;98700.87;106147;1278;23864;-79
2022/07/12 10:05:09;;;;;;;1.80;1.00;;;;;;;17.84;73.81;98699.93;106624;1278;137789;-80
2022/07/12 10:07:37;;;;;;;;;;;;;;;18.09;73.22;98690.61;106786;1279;22567;-80
2022/07/12 10:10:04;;;;;;;3.80;1.20;;;;;;;18.36;72.56;98688.60;106609;1279;125200;-80
2022/07/12 10:12:30;;;;;;;2.60;0.90;;;;;;;18.63;71.30;98678.99;106810;1279;22626;-80
2022/07/12 10:15:09;;;;;;;6.30;1.10;;;;;;;18.90;70.08;98677.40;106977;1278;22589;-80
2022/07/12 10:17:37;;;;;;;2.80;0.90;;;;;;;19.03;69.27;98675.87;106300;1278;136907;-81
2022/07/12 10:20:22;;;;;;;1.40;1.10;;;;;;;19.02;68.64;98673.33;106386;1277;23394;-83
2022/07/12 10:22:48;;;;;;;2.90;0.80;;;;;;;19.20;68.77;98674.98;106304;1278;137827;-83
2022/07/12 10:25:33;;;;;;;1.40;0.90;;;;;;;19.22;67.28;98675.17;106154;1277;25301;-84
2022/07/12 10:28:03;;;;;;;2.70;0.90;;;;;;;19.34;67.31;98671.52;106006;1279;137755;-81
2022/07/12 10:30:30;;;;;;;2.10;0.80;;;;;;;19.58;65.91;98671.08;105918;1279;22653;-84
2022/07/12 10:33:00;;;;;;;2.10;0.90;;;;;;;19.55;64.65;98662.94;106078;1279;23958;-83
2022/07/12 10:35:29;;;;;;;5.10;1.10;;;;;;;19.75;64.75;98659.34;105871;1279;137521;-85
2022/07/12 10:38:11;;;;;;;1.90;0.90;;;;;;;19.98;62.98;98655.94;106190;1280;25261;-80
2022/07/12 10:40:53;;;;;;;1.40;1.00;;;;;;;20.16;62.06;98655.25;105988;1280;137607;-83
2022/07/12 10:46:14;;;;;;;4.20;1.00;;;;;;;20.23;62.56;98653.58;106000;1278;137251;-83
2022/07/12 10:48:40;;;;;;;3.30;1.20;;;;;;;20.46;62.38;98652.54;106493;1279;30456;-84
2022/07/12 10:51:15;;;;;;;4.30;1.20;;;;;;;20.52;60.81;98651.77;106211;1279;22567;-84
2022/07/12 10:53:42;;;;;;;2.90;0.80;;;;;;;20.56;59.71;98652.58;106213;1279;137178;-82
2022/07/12 10:56:22;;;;;;;1.60;0.70;;;;;;;20.41;59.38;98652.90;106036;1279;25533;-83
2022/07/12 10:58:54;;;;;;;1.40;0.90;;;;;;;20.31;59.51;98650.55;106209;1277;137930;-83
2022/07/12 11:01:23;;;;;;;2.80;1.10;;;;;;;20.38;59.69;98650.48;106252;1277;25298;-83
2022/07/12 11:03:53;;;;;;;2.00;1.10;;;;;;;20.39;58.94;98654.78;106103;1277;137338;-84
2022/07/12 11:06:22;;;;;;;3.10;1.10;;;;;;;20.35;59.30;98649.60;106094;1277;24329;-82
2022/07/12 11:08:53;;;;;;;3.80;1.10;;;;;;;20.47;59.44;98654.41;105978;1279;22704;-85
2022/07/12 11:11:21;;;;;;;4.50;1.00;;;;;;;20.54;58.54;98649.40;106027;1279;137462;-82
2022/07/12 11:14:02;;;;;;;2.00;0.90;;;;;;;20.61;58.15;98639.14;106038;1277;22578;-85
2022/07/12 11:16:30;;;;;;;2.20;1.30;;;;;;;20.71;58.49;98637.20;105809;1279;137426;-85
2022/07/12 11:18:57;;;;;;;2.30;1.00;;;;;;;20.89;58.17;98637.17;106536;1279;22574;-85
2022/07/12 11:21:25;;;;;;;3.20;1.20;;;;;;;20.95;57.58;98634.21;106104;1279;137585;-82
2022/07/12 11:23:52;;;;;;;7.10;1.60;;;;;;;21.11;56.79;98631.11;106072;1279;25376;-84
2022/07/12 11:26:19;;;;;;;3.10;1.40;;;;;;;21.17;56.22;98626.87;105966;1279;24317;-81
2022/07/12 11:28:48;;;;;;;2.00;1.00;;;;;;;21.13;55.83;98629.41;105906;1277;137308;-85
2022/07/12 11:31:17;;;;;;;2.10;1.20;;;;;;;21.12;55.93;98632.67;106235;1278;22968;-83
2022/07/12 11:33:46;;;;;;;2.20;0.80;;;;;;;21.25;57.35;98622.77;105997;1277;137415;-81
2022/07/12 11:36:29;;;;;;;2.90;1.10;;;;;;;21.58;55.84;98625.38;106183;1278;25242;-80
2022/07/12 11:38:55;;;;;;;2.10;0.90;;;;;;;21.65;54.05;98620.15;106112;1279;24287;-82
2022/07/12 11:41:36;;;;;;;2.40;1.10;;;;;;;21.82;56.00;98618.52;105968;1279;137368;-83
2022/07/12 11:44:03;;;;;;;1.50;0.80;;;;;;;21.94;54.60;98619.70;106103;1279;22584;-83
2022/07/12 11:46:30;;;;;;;2.30;0.70;;;;;;;21.69;54.25;98628.66;105827;1278;137451;-83
2022/07/12 11:48:56;;;;;;;2.20;0.70;;;;;;;21.37;54.69;98629.83;106155;1278;25257;-83
2022/07/12 11:51:27;;;;;;;3.50;0.80;;;;;;;21.34;55.07;98620.23;106136;1278;137436;-82
2022/07/12 11:53:53;;;;;;;2.10;0.70;;;;;;;21.56;56.10;98617.27;106310;1278;22598;-82
2022/07/12 11:56:31;;;;;;;1.70;0.70;;;;;;;21.83;56.03;98613.93;106245;1277;25473;-83
2022/07/12 11:59:12;;;;;;;3.40;0.80;;;;;;;22.01;54.52;98614.98;105865;1279;137367;-81
2022/07/12 12:02:03;;;;;;;1.60;0.80;;;;;;;22.15;55.43;98614.58;106147;1278;22560;-81
2022/07/12 12:04:31;;;;;;;1.80;0.90;;;;;;;22.41;54.83;98613.31;105923;1279;137109;-83
2022/07/12 12:06:57;;;;;;;1.90;0.70;;;;;;;22.54;53.75;98611.65;105988;1278;22695;-82
2022/07/12 12:09:23;;;;;;;3.20;0.80;;;;;;;22.58;54.01;98605.40;105933;1278;137541;-78
2022/07/12 12:12:14;;;;;;;2.60;1.10;;;;;;;22.41;53.61;98607.59;105849;1278;24137;-78
2022/07/12 12:14:40;;;;;;;7.10;1.10;;;;;;;22.32;54.67;98603.04;105861;1278;22570;-80
2022/07/12 12:17:13;;;;;;;2.20;0.90;;;;;;;22.39;53.95;98594.58;105660;1278;137412;-82
2022/07/12 12:19:53;;;;;;;2.90;0.80;;;;;;;22.47;54.09;98595.53;105762;1279;24359;-79
2022/07/12 12:22:36;;;;;;;1.40;0.80;;;;;;;22.58;52.94;98590.73;105958;1279;137136;-82
2022/07/12 12:25:05;;;;;;;2.40;0.70;;;;;;;22.45;52.55;98590.98;105985;1279;25369;-82
2022/07/12 12:27:32;;;;;;;1.30;0.70;;;;;;;22.30;52.57;98596.02;105930;1279;137376;-81